sensor_id;sensor_type;location;lat;lon;timestamp;P1;durP1;ratioP1;P2;durP2;ratioP2
44512;SDS011;30219;50.588;9.504;2022-08-19T00:00:03;28.15;;;19.90;;
44512;SDS011;30219;50.588;9.504;2022-08-19T00:02:33;25.15;;;18.23;;
44512;SDS011;30219;50.588;9.504;2022-08-19T00:04:59;27.67;;;18.83;;
44512;SDS011;30219;50.588;9.504;2022-08-19T00:07:25;27.02;;;18.60;;
44512;SDS011;30219;50.588;9.504;2022-08-19T00:09:50;21.35;;;15.82;;
44512;SDS011;30219;50.588;9.504;2022-08-19T00:12:16;20.52;;;15.68;;
44512;SDS011;30219;50.588;9.504;2022-08-19T00:14:41;21.27;;;16.55;;
44512;SDS011;30219;50.588;9.504;2022-08-19T00:17:07;23.05;;;16.33;;
44512;SDS011;30219;50.588;9.504;2022-08-19T00:19:34;23.20;;;16.85;;
44512;SDS011;30219;50.588;9.504;2022-08-19T00:22:00;24.02;;;18.38;;
44512;SDS011;30219;50.588;9.504;2022-08-19T00:24:27;22.77;;;17.13;;
44512;SDS011;30219;50.588;9.504;2022-08-19T00:26:53;21.58;;;15.88;;
44512;SDS011;30219;50.588;9.504;2022-08-19T00:29:21;21.58;;;16.52;;
44512;SDS011;30219;50.588;9.504;2022-08-19T00:31:48;24.17;;;17.02;;
44512;SDS011;30219;50.588;9.504;2022-08-19T00:34:17;19.77;;;15.98;;
44512;SDS011;30219;50.588;9.504;2022-08-19T00:36:43;20.67;;;16.38;;
44512;SDS011;30219;50.588;9.504;2022-08-19T00:39:10;22.77;;;16.08;;
44512;SDS011;30219;50.588;9.504;2022-08-19T00:41:36;19.88;;;15.63;;
44512;SDS011;30219;50.588;9.504;2022-08-19T00:46:36;22.77;;;15.80;;
44512;SDS011;30219;50.588;9.504;2022-08-19T00:49:06;22.95;;;16.20;;
44512;SDS011;30219;50.588;9.504;2022-08-19T00:51:39;19.58;;;15.23;;
44512;SDS011;30219;50.588;9.504;2022-08-19T00:54:07;20.92;;;15.32;;
44512;SDS011;30219;50.588;9.504;2022-08-19T00:56:34;20.63;;;15.40;;
44512;SDS011;30219;50.588;9.504;2022-08-19T00:59:01;22.48;;;17.25;;
44512;SDS011;30219;50.588;9.504;2022-08-19T01:01:27;23.27;;;17.50;;
44512;SDS011;30219;50.588;9.504;2022-08-19T01:03:53;23.83;;;16.70;;
44512;SDS011;30219;50.588;9.504;2022-08-19T01:06:19;24.00;;;16.55;;
44512;SDS011;30219;50.588;9.504;2022-08-19T01:08:46;22.20;;;17.17;;
44512;SDS011;30219;50.588;9.504;2022-08-19T01:11:11;22.83;;;17.00;;
44512;SDS011;30219;50.588;9.504;2022-08-19T01:13:38;21.23;;;16.15;;
44512;SDS011;30219;50.588;9.504;2022-08-19T01:16:05;21.33;;;16.63;;
44512;SDS011;30219;50.588;9.504;2022-08-19T01:18:35;24.83;;;18.25;;
44512;SDS011;30219;50.588;9.504;2022-08-19T01:21:14;26.67;;;18.77;;
44512;SDS011;30219;50.588;9.504;2022-08-19T01:23:51;27.27;;;18.52;;
44512;SDS011;30219;50.588;9.504;2022-08-19T01:26:19;27.13;;;20.52;;
44512;SDS011;30219;50.588;9.504;2022-08-19T01:28:48;31.75;;;21.55;;
44512;SDS011;30219;50.588;9.504;2022-08-19T01:31:18;30.48;;;20.20;;
44512;SDS011;30219;50.588;9.504;2022-08-19T01:33:47;31.05;;;22.55;;
44512;SDS011;30219;50.588;9.504;2022-08-19T01:36:15;35.67;;;24.85;;
44512;SDS011;30219;50.588;9.504;2022-08-19T01:38:48;34.83;;;23.10;;
44512;SDS011;30219;50.588;9.504;2022-08-19T01:41:14;34.80;;;24.63;;
44512;SDS011;30219;50.588;9.504;2022-08-19T01:43:40;38.80;;;24.50;;
44512;SDS011;30219;50.588;9.504;2022-08-19T01:46:06;37.53;;;25.90;;
44512;SDS011;30219;50.588;9.504;2022-08-19T01:48:39;40.22;;;27.27;;
44512;SDS011;30219;50.588;9.504;2022-08-19T01:51:07;40.80;;;26.42;;
44512;SDS011;30219;50.588;9.504;2022-08-19T01:53:34;37.13;;;25.88;;
44512;SDS011;30219;50.588;9.504;2022-08-19T01:56:00;35.70;;;25.38;;
44512;SDS011;30219;50.588;9.504;2022-08-19T01:58:29;37.83;;;25.65;;
44512;SDS011;30219;50.588;9.504;2022-08-19T02:01:00;38.97;;;25.75;;
44512;SDS011;30219;50.588;9.504;2022-08-19T02:03:26;33.40;;;23.60;;
44512;SDS011;30219;50.588;9.504;2022-08-19T02:06:03;41.20;;;25.08;;
44512;SDS011;30219;50.588;9.504;2022-08-19T02:08:30;31.70;;;23.38;;
44512;SDS011;30219;50.588;9.504;2022-08-19T02:10:56;33.15;;;22.13;;
44512;SDS011;30219;50.588;9.504;2022-08-19T02:13:22;29.55;;;21.75;;
44512;SDS011;30219;50.588;9.504;2022-08-19T02:15:48;31.65;;;20.83;;
44512;SDS011;30219;50.588;9.504;2022-08-19T02:18:14;33.00;;;22.30;;
44512;SDS011;30219;50.588;9.504;2022-08-19T02:20:40;28.63;;;20.55;;
44512;SDS011;30219;50.588;9.504;2022-08-19T02:23:08;32.13;;;22.38;;
44512;SDS011;30219;50.588;9.504;2022-08-19T02:25:35;31.48;;;21.98;;
44512;SDS011;30219;50.588;9.504;2022-08-19T02:28:01;28.67;;;20.35;;
44512;SDS011;30219;50.588;9.504;2022-08-19T02:30:27;33.72;;;21.50;;
44512;SDS011;30219;50.588;9.504;2022-08-19T02:32:53;31.27;;;21.75;;
44512;SDS011;30219;50.588;9.504;2022-08-19T02:35:19;33.05;;;22.15;;
44512;SDS011;30219;50.588;9.504;2022-08-19T02:37:46;34.00;;;21.83;;
44512;SDS011;30219;50.588;9.504;2022-08-19T02:40:30;30.58;;;20.15;;
44512;SDS011;30219;50.588;9.504;2022-08-19T02:43:00;30.90;;;19.90;;
44512;SDS011;30219;50.588;9.504;2022-08-19T02:48:02;26.38;;;18.42;;
44512;SDS011;30219;50.588;9.504;2022-08-19T02:50:29;27.52;;;19.48;;
44512;SDS011;30219;50.588;9.504;2022-08-19T02:52:54;28.05;;;20.08;;
44512;SDS011;30219;50.588;9.504;2022-08-19T02:55:20;25.23;;;18.08;;
44512;SDS011;30219;50.588;9.504;2022-08-19T02:57:46;25.48;;;18.77;;
44512;SDS011;30219;50.588;9.504;2022-08-19T03:00:12;27.63;;;18.75;;
44512;SDS011;30219;50.588;9.504;2022-08-19T03:02:38;25.10;;;18.77;;
44512;SDS011;30219;50.588;9.504;2022-08-19T03:05:04;24.88;;;17.35;;
44512;SDS011;30219;50.588;9.504;2022-08-19T03:07:32;23.88;;;17.08;;
44512;SDS011;30219;50.588;9.504;2022-08-19T03:09:58;26.70;;;17.98;;
44512;SDS011;30219;50.588;9.504;2022-08-19T03:12:23;23.40;;;16.85;;
44512;SDS011;30219;50.588;9.504;2022-08-19T03:14:49;26.00;;;18.25;;
44512;SDS011;30219;50.588;9.504;2022-08-19T03:17:16;24.67;;;18.73;;
44512;SDS011;30219;50.588;9.504;2022-08-19T03:19:41;24.42;;;17.73;;
44512;SDS011;30219;50.588;9.504;2022-08-19T03:22:08;24.85;;;18.00;;
44512;SDS011;30219;50.588;9.504;2022-08-19T03:24:33;25.90;;;17.98;;
44512;SDS011;30219;50.588;9.504;2022-08-19T03:26:59;20.45;;;16.50;;
44512;SDS011;30219;50.588;9.504;2022-08-19T03:29:26;25.50;;;18.33;;
44512;SDS011;30219;50.588;9.504;2022-08-19T03:31:52;23.75;;;17.00;;
44512;SDS011;30219;50.588;9.504;2022-08-19T03:34:21;21.17;;;15.43;;
44512;SDS011;30219;50.588;9.504;2022-08-19T03:36:53;20.85;;;16.65;;
44512;SDS011;30219;50.588;9.504;2022-08-19T03:39:20;24.92;;;18.13;;
44512;SDS011;30219;50.588;9.504;2022-08-19T03:41:47;23.58;;;16.63;;
44512;SDS011;30219;50.588;9.504;2022-08-19T03:44:18;21.33;;;15.43;;
44512;SDS011;30219;50.588;9.504;2022-08-19T03:46:50;25.25;;;16.80;;
44512;SDS011;30219;50.588;9.504;2022-08-19T03:49:18;23.83;;;17.80;;
44512;SDS011;30219;50.588;9.504;2022-08-19T03:51:45;26.48;;;17.88;;
44512;SDS011;30219;50.588;9.504;2022-08-19T03:54:12;21.90;;;17.20;;
44512;SDS011;30219;50.588;9.504;2022-08-19T03:56:41;26.30;;;18.55;;
44512;SDS011;30219;50.588;9.504;2022-08-19T03:59:09;23.30;;;16.90;;
44512;SDS011;30219;50.588;9.504;2022-08-19T04:01:38;25.35;;;16.50;;
44512;SDS011;30219;50.588;9.504;2022-08-19T04:04:04;21.95;;;17.13;;
44512;SDS011;30219;50.588;9.504;2022-08-19T04:06:34;23.85;;;17.05;;
44512;SDS011;30219;50.588;9.504;2022-08-19T04:09:03;31.73;;;19.63;;
44512;SDS011;30219;50.588;9.504;2022-08-19T04:11:31;23.13;;;16.42;;
44512;SDS011;30219;50.588;9.504;2022-08-19T04:14:06;25.15;;;15.70;;
44512;SDS011;30219;50.588;9.504;2022-08-19T04:16:33;25.17;;;17.40;;
44512;SDS011;30219;50.588;9.504;2022-08-19T04:19:00;25.98;;;19.35;;
44512;SDS011;30219;50.588;9.504;2022-08-19T04:21:27;25.73;;;16.92;;
44512;SDS011;30219;50.588;9.504;2022-08-19T04:23:54;25.42;;;17.70;;
44512;SDS011;30219;50.588;9.504;2022-08-19T04:26:22;23.33;;;17.65;;
44512;SDS011;30219;50.588;9.504;2022-08-19T04:28:49;22.63;;;16.70;;
44512;SDS011;30219;50.588;9.504;2022-08-19T04:31:26;25.00;;;16.98;;
44512;SDS011;30219;50.588;9.504;2022-08-19T04:33:57;20.80;;;16.15;;
44512;SDS011;30219;50.588;9.504;2022-08-19T04:36:26;19.80;;;15.65;;
44512;SDS011;30219;50.588;9.504;2022-08-19T04:38:54;28.00;;;17.58;;
44512;SDS011;30219;50.588;9.504;2022-08-19T04:41:22;22.23;;;15.55;;
44512;SDS011;30219;50.588;9.504;2022-08-19T04:44:07;25.23;;;18.42;;
44512;SDS011;30219;50.588;9.504;2022-08-19T04:46:32;25.50;;;17.48;;
44512;SDS011;30219;50.588;9.504;2022-08-19T04:48:59;26.55;;;17.58;;
44512;SDS011;30219;50.588;9.504;2022-08-19T04:51:25;22.90;;;15.00;;
44512;SDS011;30219;50.588;9.504;2022-08-19T04:53:51;26.02;;;16.63;;
44512;SDS011;30219;50.588;9.504;2022-08-19T04:56:17;21.75;;;15.45;;
44512;SDS011;30219;50.588;9.504;2022-08-19T04:58:47;22.08;;;16.00;;
44512;SDS011;30219;50.588;9.504;2022-08-19T05:01:24;23.73;;;17.95;;
44512;SDS011;30219;50.588;9.504;2022-08-19T05:03:51;22.98;;;17.73;;
44512;SDS011;30219;50.588;9.504;2022-08-19T05:06:18;24.25;;;17.75;;
44512;SDS011;30219;50.588;9.504;2022-08-19T05:08:45;24.35;;;17.30;;
44512;SDS011;30219;50.588;9.504;2022-08-19T05:11:13;19.23;;;15.90;;
44512;SDS011;30219;50.588;9.504;2022-08-19T05:13:45;24.92;;;17.45;;
44512;SDS011;30219;50.588;9.504;2022-08-19T05:16:12;22.10;;;16.30;;
44512;SDS011;30219;50.588;9.504;2022-08-19T05:18:38;30.58;;;18.60;;
44512;SDS011;30219;50.588;9.504;2022-08-19T05:21:23;20.35;;;15.70;;
44512;SDS011;30219;50.588;9.504;2022-08-19T05:24:10;24.05;;;17.15;;
44512;SDS011;30219;50.588;9.504;2022-08-19T05:26:38;20.60;;;15.60;;
44512;SDS011;30219;50.588;9.504;2022-08-19T05:29:05;22.00;;;16.48;;
44512;SDS011;30219;50.588;9.504;2022-08-19T05:31:33;20.58;;;14.68;;
44512;SDS011;30219;50.588;9.504;2022-08-19T05:34:00;21.25;;;15.02;;
44512;SDS011;30219;50.588;9.504;2022-08-19T05:36:26;21.65;;;15.32;;
44512;SDS011;30219;50.588;9.504;2022-08-19T05:38:57;22.67;;;15.95;;
44512;SDS011;30219;50.588;9.504;2022-08-19T05:41:23;21.27;;;14.80;;
44512;SDS011;30219;50.588;9.504;2022-08-19T05:43:54;23.40;;;15.52;;
44512;SDS011;30219;50.588;9.504;2022-08-19T05:46:25;26.67;;;15.65;;
44512;SDS011;30219;50.588;9.504;2022-08-19T05:48:51;25.13;;;15.50;;
44512;SDS011;30219;50.588;9.504;2022-08-19T05:51:16;17.88;;;13.98;;
44512;SDS011;30219;50.588;9.504;2022-08-19T05:53:42;24.98;;;15.27;;
44512;SDS011;30219;50.588;9.504;2022-08-19T05:56:11;18.38;;;12.73;;
44512;SDS011;30219;50.588;9.504;2022-08-19T05:58:40;20.00;;;13.88;;
44512;SDS011;30219;50.588;9.504;2022-08-19T06:01:15;17.27;;;13.38;;
44512;SDS011;30219;50.588;9.504;2022-08-19T06:03:42;17.38;;;12.35;;
44512;SDS011;30219;50.588;9.504;2022-08-19T06:06:08;19.15;;;13.63;;
44512;SDS011;30219;50.588;9.504;2022-08-19T06:08:35;17.02;;;12.90;;
44512;SDS011;30219;50.588;9.504;2022-08-19T06:11:16;19.30;;;12.85;;
44512;SDS011;30219;50.588;9.504;2022-08-19T06:13:57;16.92;;;12.40;;
44512;SDS011;30219;50.588;9.504;2022-08-19T06:16:24;17.02;;;11.52;;
44512;SDS011;30219;50.588;9.504;2022-08-19T06:18:51;19.75;;;12.40;;
44512;SDS011;30219;50.588;9.504;2022-08-19T06:21:21;24.90;;;13.05;;
44512;SDS011;30219;50.588;9.504;2022-08-19T06:23:48;18.95;;;12.40;;
44512;SDS011;30219;50.588;9.504;2022-08-19T06:26:16;22.20;;;13.05;;
44512;SDS011;30219;50.588;9.504;2022-08-19T06:28:43;16.95;;;11.82;;
44512;SDS011;30219;50.588;9.504;2022-08-19T06:31:12;17.52;;;12.32;;
44512;SDS011;30219;50.588;9.504;2022-08-19T06:33:39;19.48;;;10.98;;
44512;SDS011;30219;50.588;9.504;2022-08-19T06:36:06;18.58;;;12.13;;
44512;SDS011;30219;50.588;9.504;2022-08-19T06:38:33;15.15;;;10.15;;
44512;SDS011;30219;50.588;9.504;2022-08-19T06:41:05;13.80;;;10.32;;
44512;SDS011;30219;50.588;9.504;2022-08-19T06:43:30;16.05;;;10.57;;
44512;SDS011;30219;50.588;9.504;2022-08-19T06:45:56;16.15;;;9.93;;
44512;SDS011;30219;50.588;9.504;2022-08-19T06:48:21;19.75;;;10.15;;
44512;SDS011;30219;50.588;9.504;2022-08-19T06:50:47;16.65;;;8.45;;
44512;SDS011;30219;50.588;9.504;2022-08-19T06:53:14;13.30;;;8.98;;
44512;SDS011;30219;50.588;9.504;2022-08-19T06:55:40;12.02;;;7.65;;
44512;SDS011;30219;50.588;9.504;2022-08-19T06:58:06;21.38;;;8.80;;
44512;SDS011;30219;50.588;9.504;2022-08-19T07:00:31;12.55;;;8.38;;
44512;SDS011;30219;50.588;9.504;2022-08-19T07:02:57;21.63;;;9.32;;
44512;SDS011;30219;50.588;9.504;2022-08-19T07:05:23;13.85;;;8.50;;
44512;SDS011;30219;50.588;9.504;2022-08-19T07:07:49;13.20;;;7.45;;
44512;SDS011;30219;50.588;9.504;2022-08-19T07:10:15;10.88;;;7.03;;
44512;SDS011;30219;50.588;9.504;2022-08-19T07:12:41;13.43;;;6.22;;
44512;SDS011;30219;50.588;9.504;2022-08-19T07:15:06;11.95;;;5.97;;
44512;SDS011;30219;50.588;9.504;2022-08-19T07:17:34;11.38;;;6.18;;
44512;SDS011;30219;50.588;9.504;2022-08-19T07:20:02;12.50;;;6.82;;
44512;SDS011;30219;50.588;9.504;2022-08-19T07:22:28;10.15;;;5.43;;
44512;SDS011;30219;50.588;9.504;2022-08-19T07:24:53;11.75;;;5.70;;
44512;SDS011;30219;50.588;9.504;2022-08-19T07:27:19;11.43;;;5.55;;
44512;SDS011;30219;50.588;9.504;2022-08-19T07:29:45;10.63;;;5.57;;
44512;SDS011;30219;50.588;9.504;2022-08-19T07:32:10;7.93;;;4.55;;
44512;SDS011;30219;50.588;9.504;2022-08-19T07:34:36;10.88;;;5.45;;
44512;SDS011;30219;50.588;9.504;2022-08-19T07:37:03;8.57;;;5.07;;
44512;SDS011;30219;50.588;9.504;2022-08-19T07:39:31;8.55;;;5.22;;
44512;SDS011;30219;50.588;9.504;2022-08-19T07:41:59;9.35;;;5.00;;
44512;SDS011;30219;50.588;9.504;2022-08-19T07:44:27;7.22;;;3.95;;
44512;SDS011;30219;50.588;9.504;2022-08-19T07:46:54;9.02;;;4.97;;
44512;SDS011;30219;50.588;9.504;2022-08-19T07:49:21;8.32;;;4.50;;
44512;SDS011;30219;50.588;9.504;2022-08-19T07:51:52;8.57;;;4.22;;
44512;SDS011;30219;50.588;9.504;2022-08-19T07:54:22;7.28;;;4.00;;
44512;SDS011;30219;50.588;9.504;2022-08-19T07:56:49;7.88;;;4.30;;
44512;SDS011;30219;50.588;9.504;2022-08-19T07:59:18;5.25;;;3.30;;
44512;SDS011;30219;50.588;9.504;2022-08-19T08:01:45;5.57;;;3.70;;
44512;SDS011;30219;50.588;9.504;2022-08-19T08:04:11;8.20;;;3.83;;
44512;SDS011;30219;50.588;9.504;2022-08-19T08:06:55;6.38;;;3.88;;
44512;SDS011;30219;50.588;9.504;2022-08-19T08:09:40;6.60;;;3.25;;
44512;SDS011;30219;50.588;9.504;2022-08-19T08:12:13;7.47;;;3.50;;
44512;SDS011;30219;50.588;9.504;2022-08-19T08:14:48;5.45;;;3.70;;
44512;SDS011;30219;50.588;9.504;2022-08-19T08:17:16;8.60;;;2.93;;
44512;SDS011;30219;50.588;9.504;2022-08-19T08:19:43;6.32;;;3.00;;
44512;SDS011;30219;50.588;9.504;2022-08-19T08:22:09;4.72;;;2.78;;
44512;SDS011;30219;50.588;9.504;2022-08-19T08:24:56;5.50;;;3.00;;
44512;SDS011;30219;50.588;9.504;2022-08-19T08:27:23;6.07;;;2.88;;
44512;SDS011;30219;50.588;9.504;2022-08-19T08:29:49;6.32;;;3.03;;
44512;SDS011;30219;50.588;9.504;2022-08-19T08:32:15;5.68;;;3.42;;
44512;SDS011;30219;50.588;9.504;2022-08-19T08:34:41;5.22;;;2.75;;
44512;SDS011;30219;50.588;9.504;2022-08-19T08:37:07;3.97;;;2.40;;
44512;SDS011;30219;50.588;9.504;2022-08-19T08:39:32;6.35;;;2.90;;
44512;SDS011;30219;50.588;9.504;2022-08-19T08:42:07;5.07;;;2.55;;
44512;SDS011;30219;50.588;9.504;2022-08-19T08:44:43;6.72;;;2.70;;
44512;SDS011;30219;50.588;9.504;2022-08-19T08:47:25;5.50;;;2.75;;
44512;SDS011;30219;50.588;9.504;2022-08-19T08:50:07;4.70;;;2.70;;
44512;SDS011;30219;50.588;9.504;2022-08-19T08:52:41;6.85;;;2.40;;
44512;SDS011;30219;50.588;9.504;2022-08-19T08:55:15;4.37;;;2.63;;
44512;SDS011;30219;50.588;9.504;2022-08-19T09:00:17;5.20;;;2.45;;
44512;SDS011;30219;50.588;9.504;2022-08-19T09:02:45;5.00;;;2.63;;
44512;SDS011;30219;50.588;9.504;2022-08-19T09:05:11;6.38;;;2.90;;
44512;SDS011;30219;50.588;9.504;2022-08-19T09:07:55;4.40;;;2.50;;
44512;SDS011;30219;50.588;9.504;2022-08-19T09:10:33;5.68;;;2.58;;
44512;SDS011;30219;50.588;9.504;2022-08-19T09:15:53;4.57;;;2.60;;
44512;SDS011;30219;50.588;9.504;2022-08-19T09:18:23;6.35;;;2.50;;
44512;SDS011;30219;50.588;9.504;2022-08-19T09:20:49;4.32;;;2.20;;
44512;SDS011;30219;50.588;9.504;2022-08-19T09:23:15;4.85;;;2.63;;
44512;SDS011;30219;50.588;9.504;2022-08-19T09:25:40;4.75;;;2.33;;
44512;SDS011;30219;50.588;9.504;2022-08-19T09:28:06;5.78;;;2.35;;
44512;SDS011;30219;50.588;9.504;2022-08-19T09:30:34;4.93;;;2.05;;
44512;SDS011;30219;50.588;9.504;2022-08-19T09:33:04;6.55;;;2.38;;
44512;SDS011;30219;50.588;9.504;2022-08-19T09:35:31;4.00;;;2.13;;
44512;SDS011;30219;50.588;9.504;2022-08-19T09:37:57;3.47;;;1.88;;
44512;SDS011;30219;50.588;9.504;2022-08-19T09:40:24;6.30;;;2.00;;
44512;SDS011;30219;50.588;9.504;2022-08-19T09:42:52;4.15;;;2.40;;
44512;SDS011;30219;50.588;9.504;2022-08-19T09:45:19;4.15;;;2.03;;
44512;SDS011;30219;50.588;9.504;2022-08-19T09:47:46;6.40;;;2.00;;
44512;SDS011;30219;50.588;9.504;2022-08-19T09:50:13;4.68;;;2.33;;
44512;SDS011;30219;50.588;9.504;2022-08-19T09:52:39;5.85;;;2.40;;
44512;SDS011;30219;50.588;9.504;2022-08-19T09:55:07;5.35;;;2.30;;
44512;SDS011;30219;50.588;9.504;2022-08-19T09:57:34;5.20;;;2.10;;
44512;SDS011;30219;50.588;9.504;2022-08-19T10:00:02;5.70;;;2.15;;
44512;SDS011;30219;50.588;9.504;2022-08-19T10:02:29;6.53;;;2.00;;
44512;SDS011;30219;50.588;9.504;2022-08-19T10:04:55;6.45;;;2.40;;
44512;SDS011;30219;50.588;9.504;2022-08-19T10:07:39;4.50;;;1.80;;
44512;SDS011;30219;50.588;9.504;2022-08-19T10:10:05;5.13;;;2.00;;
44512;SDS011;30219;50.588;9.504;2022-08-19T10:12:31;4.05;;;1.67;;
44512;SDS011;30219;50.588;9.504;2022-08-19T10:14:58;5.35;;;2.58;;
44512;SDS011;30219;50.588;9.504;2022-08-19T10:17:24;2.40;;;1.60;;
44512;SDS011;30219;50.588;9.504;2022-08-19T10:19:50;5.50;;;1.67;;
44512;SDS011;30219;50.588;9.504;2022-08-19T10:22:16;4.63;;;1.70;;
44512;SDS011;30219;50.588;9.504;2022-08-19T10:24:43;2.58;;;1.30;;
44512;SDS011;30219;50.588;9.504;2022-08-19T10:27:10;3.33;;;1.55;;
44512;SDS011;30219;50.588;9.504;2022-08-19T10:29:37;6.40;;;1.40;;
44512;SDS011;30219;50.588;9.504;2022-08-19T10:32:04;5.93;;;1.45;;
44512;SDS011;30219;50.588;9.504;2022-08-19T10:34:32;4.25;;;1.48;;
44512;SDS011;30219;50.588;9.504;2022-08-19T10:36:59;2.58;;;1.40;;
44512;SDS011;30219;50.588;9.504;2022-08-19T10:39:25;5.30;;;1.60;;
44512;SDS011;30219;50.588;9.504;2022-08-19T10:41:54;3.53;;;1.77;;
44512;SDS011;30219;50.588;9.504;2022-08-19T10:44:21;3.88;;;1.50;;
44512;SDS011;30219;50.588;9.504;2022-08-19T10:46:48;2.45;;;1.33;;
44512;SDS011;30219;50.588;9.504;2022-08-19T10:49:15;1.90;;;1.00;;
44512;SDS011;30219;50.588;9.504;2022-08-19T10:51:41;2.60;;;1.17;;
44512;SDS011;30219;50.588;9.504;2022-08-19T10:54:26;1.80;;;1.10;;
44512;SDS011;30219;50.588;9.504;2022-08-19T10:57:12;2.83;;;1.30;;
44512;SDS011;30219;50.588;9.504;2022-08-19T10:59:38;2.47;;;1.15;;
44512;SDS011;30219;50.588;9.504;2022-08-19T11:02:05;3.15;;;1.10;;
44512;SDS011;30219;50.588;9.504;2022-08-19T11:04:38;4.13;;;1.50;;
44512;SDS011;30219;50.588;9.504;2022-08-19T11:07:04;2.40;;;1.17;;
44512;SDS011;30219;50.588;9.504;2022-08-19T11:09:39;2.95;;;1.23;;
44512;SDS011;30219;50.588;9.504;2022-08-19T11:12:07;3.38;;;1.35;;
44512;SDS011;30219;50.588;9.504;2022-08-19T11:14:34;1.90;;;1.20;;
44512;SDS011;30219;50.588;9.504;2022-08-19T11:17:01;2.30;;;1.00;;
44512;SDS011;30219;50.588;9.504;2022-08-19T11:19:28;4.22;;;1.75;;
44512;SDS011;30219;50.588;9.504;2022-08-19T11:21:53;6.35;;;1.73;;
44512;SDS011;30219;50.588;9.504;2022-08-19T11:24:20;5.30;;;1.55;;
44512;SDS011;30219;50.588;9.504;2022-08-19T11:26:48;2.90;;;1.38;;
44512;SDS011;30219;50.588;9.504;2022-08-19T11:29:15;2.45;;;1.30;;
44512;SDS011;30219;50.588;9.504;2022-08-19T11:31:43;2.75;;;1.50;;
44512;SDS011;30219;50.588;9.504;2022-08-19T11:34:12;3.72;;;1.50;;
44512;SDS011;30219;50.588;9.504;2022-08-19T11:36:42;3.63;;;1.48;;
44512;SDS011;30219;50.588;9.504;2022-08-19T11:39:10;3.30;;;1.50;;
44512;SDS011;30219;50.588;9.504;2022-08-19T11:41:38;5.13;;;1.70;;
44512;SDS011;30219;50.588;9.504;2022-08-19T11:44:04;4.05;;;1.50;;
44512;SDS011;30219;50.588;9.504;2022-08-19T11:46:32;2.38;;;1.30;;
44512;SDS011;30219;50.588;9.504;2022-08-19T11:49:00;2.85;;;1.58;;
44512;SDS011;30219;50.588;9.504;2022-08-19T11:51:27;4.40;;;1.48;;
44512;SDS011;30219;50.588;9.504;2022-08-19T11:53:54;3.03;;;1.80;;
44512;SDS011;30219;50.588;9.504;2022-08-19T11:56:21;3.05;;;1.50;;
44512;SDS011;30219;50.588;9.504;2022-08-19T11:58:47;3.35;;;1.60;;
44512;SDS011;30219;50.588;9.504;2022-08-19T12:01:14;2.30;;;1.48;;
44512;SDS011;30219;50.588;9.504;2022-08-19T12:03:41;3.28;;;1.63;;
44512;SDS011;30219;50.588;9.504;2022-08-19T12:06:08;3.72;;;1.77;;
44512;SDS011;30219;50.588;9.504;2022-08-19T12:08:38;2.45;;;1.30;;
44512;SDS011;30219;50.588;9.504;2022-08-19T12:11:04;3.20;;;1.50;;
44512;SDS011;30219;50.588;9.504;2022-08-19T12:13:33;7.30;;;1.80;;
44512;SDS011;30219;50.588;9.504;2022-08-19T12:15:59;2.40;;;1.40;;
44512;SDS011;30219;50.588;9.504;2022-08-19T12:18:25;6.25;;;1.77;;
44512;SDS011;30219;50.588;9.504;2022-08-19T12:20:52;5.88;;;1.70;;
44512;SDS011;30219;50.588;9.504;2022-08-19T12:23:21;6.20;;;1.55;;
44512;SDS011;30219;50.588;9.504;2022-08-19T12:25:48;4.85;;;1.73;;
44512;SDS011;30219;50.588;9.504;2022-08-19T12:28:21;4.90;;;1.33;;
44512;SDS011;30219;50.588;9.504;2022-08-19T12:30:48;2.60;;;1.33;;
44512;SDS011;30219;50.588;9.504;2022-08-19T12:33:16;3.90;;;1.30;;
44512;SDS011;30219;50.588;9.504;2022-08-19T12:35:43;3.17;;;1.40;;
44512;SDS011;30219;50.588;9.504;2022-08-19T12:38:10;4.07;;;1.40;;
44512;SDS011;30219;50.588;9.504;2022-08-19T12:40:36;2.25;;;1.30;;
44512;SDS011;30219;50.588;9.504;2022-08-19T12:43:04;2.45;;;1.45;;
44512;SDS011;30219;50.588;9.504;2022-08-19T12:45:31;2.60;;;1.40;;
44512;SDS011;30219;50.588;9.504;2022-08-19T12:47:56;3.15;;;1.30;;
44512;SDS011;30219;50.588;9.504;2022-08-19T12:50:23;3.20;;;1.30;;
44512;SDS011;30219;50.588;9.504;2022-08-19T12:52:49;3.80;;;1.50;;
44512;SDS011;30219;50.588;9.504;2022-08-19T12:55:14;2.25;;;1.30;;
44512;SDS011;30219;50.588;9.504;2022-08-19T12:57:40;2.78;;;1.27;;
44512;SDS011;30219;50.588;9.504;2022-08-19T13:00:07;3.17;;;1.58;;
44512;SDS011;30219;50.588;9.504;2022-08-19T13:02:40;3.05;;;1.42;;
44512;SDS011;30219;50.588;9.504;2022-08-19T13:05:10;2.63;;;1.45;;
44512;SDS011;30219;50.588;9.504;2022-08-19T13:07:39;2.53;;;1.50;;
44512;SDS011;30219;50.588;9.504;2022-08-19T13:10:06;3.08;;;1.42;;
44512;SDS011;30219;50.588;9.504;2022-08-19T13:12:33;3.03;;;1.55;;
44512;SDS011;30219;50.588;9.504;2022-08-19T13:14:59;2.25;;;1.40;;
44512;SDS011;30219;50.588;9.504;2022-08-19T13:17:25;2.55;;;1.48;;
44512;SDS011;30219;50.588;9.504;2022-08-19T13:19:51;2.72;;;1.40;;
44512;SDS011;30219;50.588;9.504;2022-08-19T13:22:17;3.15;;;1.30;;
44512;SDS011;30219;50.588;9.504;2022-08-19T13:24:43;4.55;;;1.77;;
44512;SDS011;30219;50.588;9.504;2022-08-19T13:27:08;5.03;;;1.67;;
44512;SDS011;30219;50.588;9.504;2022-08-19T13:29:34;2.95;;;1.67;;
44512;SDS011;30219;50.588;9.504;2022-08-19T13:32:18;3.13;;;1.50;;
44512;SDS011;30219;50.588;9.504;2022-08-19T13:35:04;3.78;;;1.50;;
44512;SDS011;30219;50.588;9.504;2022-08-19T13:37:30;2.60;;;1.52;;
44512;SDS011;30219;50.588;9.504;2022-08-19T13:40:09;3.70;;;1.40;;
44512;SDS011;30219;50.588;9.504;2022-08-19T13:42:39;2.75;;;1.45;;
44512;SDS011;30219;50.588;9.504;2022-08-19T13:45:05;3.10;;;1.80;;
44512;SDS011;30219;50.588;9.504;2022-08-19T13:47:32;4.90;;;1.40;;
44512;SDS011;30219;50.588;9.504;2022-08-19T13:49:59;3.67;;;1.90;;
44512;SDS011;30219;50.588;9.504;2022-08-19T13:52:25;3.15;;;1.70;;
44512;SDS011;30219;50.588;9.504;2022-08-19T13:54:51;2.50;;;1.50;;
44512;SDS011;30219;50.588;9.504;2022-08-19T13:57:16;3.33;;;1.60;;
44512;SDS011;30219;50.588;9.504;2022-08-19T13:59:42;2.25;;;1.60;;
44512;SDS011;30219;50.588;9.504;2022-08-19T14:02:07;3.50;;;1.70;;
44512;SDS011;30219;50.588;9.504;2022-08-19T14:04:33;3.45;;;1.55;;
44512;SDS011;30219;50.588;9.504;2022-08-19T14:06:58;2.58;;;1.50;;
44512;SDS011;30219;50.588;9.504;2022-08-19T14:09:24;2.28;;;1.38;;
44512;SDS011;30219;50.588;9.504;2022-08-19T14:11:50;4.55;;;1.65;;
44512;SDS011;30219;50.588;9.504;2022-08-19T14:14:16;2.80;;;1.58;;
44512;SDS011;30219;50.588;9.504;2022-08-19T14:16:42;2.83;;;1.42;;
44512;SDS011;30219;50.588;9.504;2022-08-19T14:19:07;3.67;;;1.55;;
44512;SDS011;30219;50.588;9.504;2022-08-19T14:21:33;6.15;;;1.77;;
44512;SDS011;30219;50.588;9.504;2022-08-19T14:24:01;5.05;;;1.90;;
44512;SDS011;30219;50.588;9.504;2022-08-19T14:26:26;3.10;;;1.50;;
44512;SDS011;30219;50.588;9.504;2022-08-19T14:28:52;2.95;;;1.75;;
44512;SDS011;30219;50.588;9.504;2022-08-19T14:31:19;6.18;;;1.95;;
44512;SDS011;30219;50.588;9.504;2022-08-19T14:33:46;4.15;;;2.10;;
44512;SDS011;30219;50.588;9.504;2022-08-19T14:36:13;4.80;;;1.92;;
44512;SDS011;30219;50.588;9.504;2022-08-19T14:38:38;3.42;;;1.45;;
44512;SDS011;30219;50.588;9.504;2022-08-19T14:43:47;4.63;;;1.83;;
44512;SDS011;30219;50.588;9.504;2022-08-19T14:46:17;4.28;;;1.83;;
44512;SDS011;30219;50.588;9.504;2022-08-19T14:48:48;3.60;;;1.70;;
44512;SDS011;30219;50.588;9.504;2022-08-19T14:51:14;3.35;;;1.75;;
44512;SDS011;30219;50.588;9.504;2022-08-19T14:53:41;3.25;;;1.80;;